Niagara Falls International Airport
KIAG : now visible

Airfield :











YOU CAN JOIN US ON...

 
LOGIN :

Register | Disclaimer

   EN    FR    IT 

 









Legend :    VFR   Marginal VFR   IFR   Intensive IFR   Very Intensive IFR
Visi :
Ceiling :
>= 8 km
>= 3000ft
5 to 8 km
1000 to 3000 ft
1500m to 5 km
500 to 1000 ft
800 to 1500m
200 to 500 ft
< 800m
< 200 ft
Symbols :   Thunderstorms  Fog  Heavy snow  Heavy precipitations  Wind > 20 kt






- Airport Elevation : 589 ft
- IATA code : IAG


KIAG - Niagara Falls International

CURRENT METAR :
  • 161653Z 09008KT 10SM CLR 24/13 A3022 RMK AO2 SLP230 T02440133

EXPIRED METARs :
  • 161553Z 10010KT 10SM CLR 23/14 A3023 RMK AO2 SLP234 T02330139
  • 161453Z 10007KT 10SM CLR 22/14 A3023 RMK AO2 SLP236 T02220144 53007

TAF KIAG
Valid from the 16 at 18:00 until the 17 at 18:00 UTC


161720Z 1618/1718 10010KT P6SM SCT040
FM170200 13007KT P6SM SKC
FM171100 16005KT P6SM FEW200
FM171400 18009KT P6SM SCT060
FM171500 19010G17KT P6SM FEW050
KZOB FIR / North America



MET'MAP, your aeronautical weather chart ! - Copyright ORBIFLY December 2007 - Disclaimer

ORBIFLY MET'MAP TEAM :

Programming & Development : Alexandra Zaïnal
Concept & original design : Baudouin d'Aumeries
Assistance for programming : Marc-Olivier Méhu
Technical & hardware support : Manuel Goepfert

Contact : metmap@orbifly.com




SOURCES & CREDITS :

   NOAA       Earth
Advisory